createdAt,value
2017-11-05T16:52:59.062Z,60
2017-11-05T16:53:15.618Z,64
2017-11-05T16:53:27.290Z,64
2017-11-05T16:53:38.842Z,56
2017-11-05T16:53:50.474Z,68
2017-11-05T16:54:05.934Z,68
2017-11-05T16:54:22.328Z,68
2017-11-05T16:54:34.741Z,72
2017-11-05T16:54:46.441Z,76
2017-11-05T16:54:57.904Z,68
2017-11-05T16:55:09.698Z,68
2017-11-05T16:55:21.337Z,68
2017-11-05T16:55:32.543Z,68
2017-11-05T16:55:43.945Z,20
2017-11-05T16:55:59.631Z,52
2017-11-05T16:56:16.124Z,52
2017-11-05T16:56:28.801Z,52
2017-11-05T16:56:51.878Z,56
2017-11-05T16:57:04.200Z,60
2017-11-05T16:57:15.791Z,52
2017-11-05T16:57:31.382Z,52
2017-11-05T16:57:47.650Z,48
2017-11-05T16:58:11.545Z,52
2017-11-05T16:58:22.680Z,52
2017-11-05T16:58:34.166Z,52
2017-11-05T16:58:45.833Z,52
2017-11-05T16:58:57.490Z,52
2017-11-05T16:59:13.092Z,56
2017-11-05T16:59:29.248Z,48
2017-11-05T16:59:41.633Z,48
2017-11-05T16:59:53.212Z,48
2017-11-05T17:00:05.496Z,48
2017-11-05T17:00:18.231Z,48
2017-11-05T17:00:29.544Z,48
2017-11-05T17:00:45.193Z,48
2017-11-05T17:01:01.678Z,48
2017-11-05T17:01:13.712Z,52
2017-11-05T17:01:29.409Z,48
2017-11-05T17:01:41.665Z,48
2017-11-05T17:01:53.202Z,64
2017-11-05T17:02:04.970Z,64
2017-11-05T17:02:16.278Z,64
2017-11-05T17:02:27.905Z,60
2017-11-05T17:02:44.217Z,48
2017-11-05T17:02:59.935Z,60
2017-11-05T17:03:16.296Z,40
2017-11-05T17:03:49.447Z,52
2017-11-05T17:04:04.700Z,36
2017-11-05T17:04:21.007Z,44
2017-11-05T17:04:37.394Z,32
2017-11-05T17:04:53.723Z,36
2017-11-05T17:05:06.157Z,36
2017-11-05T17:05:17.697Z,36
2017-11-05T17:05:29.232Z,36
2017-11-05T17:05:44.626Z,36
2017-11-05T17:06:01.113Z,32
2017-11-05T17:06:13.573Z,32
2017-11-05T17:06:29.157Z,36
2017-11-05T17:06:45.398Z,40
2017-11-05T17:07:01.826Z,36
2017-11-05T17:07:18.004Z,36
2017-11-05T17:07:34.444Z,36
2017-11-05T17:07:47.286Z,40
2017-11-05T17:08:04.038Z,40
2017-11-05T17:08:20.515Z,36
2017-11-05T17:08:36.675Z,40
2017-11-05T17:08:49.011Z,36
2017-11-05T17:09:00.604Z,36
2017-11-05T17:09:12.074Z,36
2017-11-05T17:09:27.681Z,40
2017-11-05T17:09:39.926Z,40
2017-11-05T17:09:55.493Z,36
2017-11-05T17:10:11.930Z,36
2017-11-05T17:10:24.271Z,32
2017-11-05T17:10:35.669Z,36
2017-11-05T17:10:47.605Z,36
2017-11-05T17:10:58.892Z,36
2017-11-05T17:11:11.219Z,32
2017-11-05T17:11:27.567Z,36
2017-11-05T17:11:39.945Z,36
2017-11-05T17:11:51.650Z,36
2017-11-05T17:12:07.046Z,36
2017-11-05T17:12:19.383Z,36
2017-11-05T17:12:34.980Z,40
2017-11-05T17:12:47.409Z,32
2017-11-05T17:12:58.936Z,36
2017-11-05T17:13:10.564Z,32
2017-11-05T17:13:26.150Z,32
2017-11-05T17:13:38.641Z,36
2017-11-05T17:13:49.971Z,32
2017-11-05T17:14:02.096Z,32
2017-11-05T17:14:15.404Z,32
2017-11-05T17:14:31.959Z,32
2017-11-05T17:14:49.526Z,32
2017-11-05T17:15:06.381Z,32
2017-11-05T17:15:22.765Z,32
2017-11-05T17:15:49.001Z,32
2017-11-05T17:16:05.487Z,32
2017-11-05T17:16:21.504Z,16
2017-11-05T17:17:09.618Z,36
2017-11-05T17:20:15.758Z,36
2017-11-05T17:20:31.152Z,36
2017-11-05T17:20:49.015Z,36
2017-11-05T17:21:05.689Z,36
2017-11-05T17:21:21.988Z,36
2017-11-05T17:21:34.101Z,40
2017-11-05T17:21:45.742Z,40
2017-11-05T17:22:01.236Z,40
2017-11-05T17:22:14.233Z,40
2017-11-05T17:22:30.905Z,40
2017-11-05T17:22:47.026Z,36
2017-11-05T17:23:03.723Z,36
2017-11-05T17:23:16.463Z,32
2017-11-05T17:23:33.145Z,36
2017-11-05T17:23:45.921Z,36
2017-11-05T17:23:58.409Z,36
2017-11-05T17:24:10.030Z,36
2017-11-05T17:24:21.624Z,40
2017-11-05T17:24:33.305Z,36
2017-11-05T17:24:44.705Z,36
2017-11-05T17:24:56.206Z,36
2017-11-05T17:25:07.866Z,36
2017-11-05T17:25:19.385Z,36
2017-11-05T17:25:30.949Z,36
2017-11-05T17:25:42.447Z,36
2017-11-05T17:25:53.979Z,36
2017-11-05T17:26:05.659Z,36
2017-11-05T17:26:17.034Z,36
2017-11-05T17:26:32.757Z,36
2017-11-05T17:26:45.097Z,40
2017-11-05T17:27:01.838Z,40
2017-11-05T17:27:12.998Z,36
2017-11-05T17:27:24.670Z,36
2017-11-05T17:27:40.303Z,36
2017-11-05T17:27:52.508Z,36
2017-11-05T17:28:04.115Z,40
2017-11-05T17:28:25.513Z,36
2017-11-05T17:28:37.761Z,36
2017-11-05T17:28:53.940Z,36
2017-11-05T17:29:06.254Z,36
2017-11-05T17:29:17.774Z,36
2017-11-05T17:29:29.478Z,36
2017-11-05T17:29:40.886Z,36
2017-11-05T17:29:53.202Z,36
2017-11-05T17:30:09.657Z,36
2017-11-05T17:30:21.939Z,36
2017-11-05T17:30:33.566Z,36
2017-11-05T17:31:19.271Z,36
2017-11-05T17:35:03.327Z,36
2017-11-05T17:35:15.045Z,36
2017-11-05T17:35:31.311Z,36
2017-11-05T17:35:42.691Z,36
2017-11-05T17:35:54.425Z,40
2017-11-05T17:36:05.851Z,40
2017-11-05T17:36:17.332Z,40
2017-11-05T17:36:33.130Z,40
2017-11-05T17:36:45.350Z,40
2017-11-05T17:36:56.853Z,40
2017-11-05T17:37:12.415Z,40
2017-11-05T17:37:30.056Z,40
2017-11-05T17:37:45.173Z,40
2017-11-05T17:37:57.559Z,40
2017-11-05T17:38:09.046Z,36
2017-11-05T17:38:23.156Z,40
2017-11-05T17:38:35.396Z,40
2017-11-05T17:38:47.043Z,40
2017-11-05T17:38:59.172Z,40
2017-11-05T17:39:55.286Z,36
2017-11-05T18:07:04.244Z,36
2017-11-05T19:18:33.526Z,12
2017-11-05T19:19:22.208Z,16
2017-11-05T19:19:34.009Z,16
2017-11-05T19:19:45.514Z,16
2017-11-05T19:19:56.984Z,16
2017-11-05T19:20:08.705Z,16
2017-11-05T19:20:20.386Z,16
2017-11-05T19:20:35.722Z,16
2017-11-05T19:20:48.014Z,16
2017-11-05T19:21:00.013Z,16
2017-11-05T19:21:11.191Z,16
2017-11-05T19:21:22.962Z,16
2017-11-05T19:21:34.492Z,16
2017-11-05T19:21:49.949Z,16
2017-11-05T19:22:02.345Z,16
2017-11-05T19:22:13.771Z,16
2017-11-05T19:22:25.415Z,16
2017-11-05T19:22:36.895Z,12
2017-11-05T19:22:52.470Z,12
2017-11-05T19:23:08.918Z,16
2017-11-05T19:23:21.110Z,16
2017-11-05T19:23:32.871Z,16
2017-11-05T19:23:44.235Z,16
2017-11-05T19:24:05.685Z,16
2017-11-05T19:24:20.855Z,16
2017-11-05T19:24:33.427Z,16
2017-11-05T19:24:45.430Z,16
2017-11-05T19:24:58.026Z,16
2017-11-05T19:25:10.196Z,12
2017-11-05T19:25:22.737Z,12
2017-11-05T19:25:34.210Z,12
2017-11-05T19:25:45.845Z,12
2017-11-05T19:26:01.374Z,12
2017-11-05T19:26:17.654Z,12
2017-11-05T19:26:30.126Z,12
2017-11-05T19:26:41.632Z,12
2017-11-05T19:26:53.427Z,12
2017-11-05T19:27:04.643Z,12
2017-11-05T19:27:16.108Z,12
2017-11-05T19:27:28.886Z,12
2017-11-05T19:27:41.237Z,12
2017-11-05T19:27:56.904Z,16
2017-11-05T19:28:09.014Z,12
2017-11-05T19:28:21.244Z,12
2017-11-05T19:28:33.777Z,12
2017-11-05T19:28:45.411Z,12
2017-11-05T19:28:57.026Z,12
2017-11-05T19:29:09.742Z,12
2017-11-05T19:29:21.338Z,12
2017-11-05T19:29:32.833Z,12
2017-11-05T19:29:44.546Z,12
2017-11-05T19:29:55.966Z,12
2017-11-05T19:30:11.767Z,16
2017-11-05T19:30:24.014Z,16
2017-11-05T19:30:35.424Z,16
2017-11-05T19:30:50.904Z,16
2017-11-05T19:31:07.336Z,12
2017-11-05T19:31:19.804Z,12
2017-11-05T19:31:31.203Z,12
2017-11-05T19:31:46.855Z,12
2017-11-05T19:31:59.892Z,16
2017-11-05T19:32:12.376Z,12
2017-11-05T19:32:23.922Z,12
2017-11-05T19:32:39.392Z,12
2017-11-05T19:32:55.883Z,12
2017-11-05T19:33:08.285Z,12
2017-11-05T19:33:19.704Z,12
2017-11-05T19:33:35.430Z,12
2017-11-05T19:33:52.267Z,12
2017-11-05T19:34:08.459Z,16
2017-11-05T19:34:24.397Z,16
2017-11-05T19:34:49.011Z,12
2017-11-05T19:35:05.249Z,12
2017-11-05T19:35:18.128Z,12
2017-11-05T19:35:30.781Z,12
2017-11-05T19:35:42.577Z,12
2017-11-05T19:36:00.488Z,12
2017-11-05T19:36:17.222Z,12
2017-11-05T19:36:29.838Z,12
2017-11-05T19:36:43.081Z,16
2017-11-05T19:36:56.423Z,16
2017-11-05T19:37:13.413Z,16
2017-11-05T19:37:25.654Z,16
2017-11-05T19:37:42.810Z,16
2017-11-05T19:37:59.978Z,16
2017-11-05T19:38:13.734Z,16
2017-11-05T19:38:25.933Z,16
2017-11-05T19:38:38.296Z,16
2017-11-05T19:38:54.975Z,16
2017-11-05T19:39:07.121Z,16
2017-11-05T19:39:22.800Z,16
2017-11-05T19:39:35.193Z,16
2017-11-05T19:39:52.249Z,16
2017-11-05T19:40:04.689Z,16
2017-11-05T19:40:22.209Z,16
2017-11-05T19:40:34.478Z,16
2017-11-05T19:40:47.590Z,16
2017-11-05T19:41:04.791Z,16
2017-11-05T19:41:16.900Z,16
2017-11-05T19:41:35.221Z,16
2017-11-05T19:41:52.023Z,16
2017-11-05T19:42:05.932Z,16
2017-11-05T19:42:24.250Z,16
2017-11-05T19:42:41.043Z,16
2017-11-05T19:42:57.465Z,16
2017-11-05T19:43:10.003Z,16
2017-11-05T19:43:23.122Z,16
2017-11-05T19:43:40.239Z,16
2017-11-05T19:43:56.608Z,16
2017-11-05T19:44:09.770Z,16
2017-11-05T19:44:21.856Z,16
2017-11-05T19:44:33.531Z,16
2017-11-05T19:44:48.793Z,16
2017-11-05T19:45:01.927Z,16
2017-11-05T19:45:18.781Z,16
2017-11-05T19:45:34.917Z,16
2017-11-05T19:45:51.413Z,16
2017-11-05T19:46:07.639Z,16
2017-11-05T19:46:19.975Z,16
2017-11-05T19:46:33.153Z,16
2017-11-05T19:46:50.888Z,16
2017-11-05T19:47:02.786Z,16
2017-11-05T19:47:16.402Z,16
2017-11-05T19:47:29.159Z,16
2017-11-05T19:47:42.227Z,16
2017-11-05T19:47:55.257Z,16
2017-11-05T19:52:26.919Z,16
2017-11-05T19:52:43.226Z,12
2017-11-05T19:52:55.384Z,12
2017-11-05T19:53:07.293Z,12
2017-11-05T19:53:24.202Z,12
2017-11-05T19:53:36.538Z,12
2017-11-05T19:53:54.226Z,12
2017-11-05T19:58:23.649Z,12
2017-11-05T19:58:41.539Z,12
2017-11-05T19:59:00.459Z,12
2017-11-05T19:59:16.663Z,12
2017-11-05T19:59:33.116Z,12
2017-11-05T19:59:49.665Z,12
2017-11-05T20:00:01.639Z,12
2017-11-05T20:00:17.301Z,12
2017-11-05T20:00:29.830Z,12
2017-11-05T20:00:43.857Z,12
2017-11-05T20:00:57.064Z,12
2017-11-05T20:01:09.176Z,12
2017-11-05T20:01:26.405Z,16
2017-11-05T20:01:38.679Z,16
2017-11-05T20:01:54.843Z,16
2017-11-05T20:02:11.159Z,16
2017-11-05T20:02:26.954Z,16
2017-11-05T20:02:39.322Z,16
2017-11-05T20:02:52.400Z,16
2017-11-05T20:03:05.086Z,16
2017-11-05T20:03:22.183Z,12
2017-11-05T20:03:39.182Z,12
2017-11-05T20:03:55.543Z,16
2017-11-05T20:04:12.496Z,16
2017-11-05T20:04:28.954Z,16
2017-11-05T20:04:44.318Z,16
2017-11-05T20:05:01.574Z,16
2017-11-05T20:05:13.274Z,16
2017-11-05T20:05:30.474Z,16
2017-11-05T20:05:42.834Z,16
2017-11-05T20:05:59.767Z,16
2017-11-05T20:06:16.172Z,16
2017-11-05T20:06:32.564Z,4
2017-11-05T20:06:48.940Z,12
2017-11-05T20:07:01.275Z,4
2017-11-05T20:07:12.514Z,4
2017-11-05T20:07:24.128Z,4
2017-11-05T20:07:39.919Z,12
2017-11-05T20:07:52.125Z,12
2017-11-05T20:08:07.804Z,12
2017-11-05T20:08:20.587Z,12
2017-11-05T20:08:37.023Z,16
2017-11-05T20:08:53.465Z,16
2017-11-05T20:09:09.985Z,16
2017-11-05T20:09:27.298Z,16
2017-11-05T20:09:40.585Z,16
2017-11-05T20:09:57.261Z,16
2017-11-05T20:10:09.830Z,16
2017-11-05T20:10:26.198Z,16
2017-11-05T20:10:44.195Z,16
2017-11-05T20:11:01.156Z,16
2017-11-05T20:11:14.998Z,16
2017-11-05T20:11:26.793Z,16
2017-11-05T20:11:39.826Z,16
2017-11-05T20:11:53.375Z,16
2017-11-05T20:12:10.357Z,16
2017-11-05T20:12:23.064Z,16
2017-11-05T20:12:36.760Z,16
2017-11-05T20:12:52.547Z,16
2017-11-05T20:13:09.139Z,16
2017-11-05T20:13:25.412Z,16
2017-11-05T20:13:41.985Z,16
2017-11-05T20:13:58.741Z,16
2017-11-05T20:14:14.476Z,16
2017-11-05T20:14:30.934Z,16
2017-11-05T20:14:47.044Z,16
2017-11-05T20:15:03.713Z,16
2017-11-05T20:25:12.762Z,16
2017-11-05T20:35:19.668Z,12
2017-11-05T20:35:36.539Z,16
2017-11-05T20:35:55.023Z,16
2017-11-05T20:36:11.176Z,16
2017-11-05T20:36:28.097Z,16
2017-11-05T20:36:43.615Z,16
2017-11-05T20:36:56.067Z,16
2017-11-05T20:37:11.511Z,16
2017-11-05T20:37:28.304Z,16
2017-11-05T20:37:40.795Z,16
2017-11-05T20:37:58.695Z,16
2017-11-05T20:38:16.239Z,16
2017-11-05T20:38:32.413Z,16
2017-11-05T20:38:50.055Z,16
2017-11-05T20:39:08.415Z,16
2017-11-05T20:39:26.776Z,12
2017-11-05T20:39:43.382Z,12
2017-11-05T20:41:03.321Z,12
2017-11-05T20:41:20.963Z,12
2017-11-05T20:41:38.651Z,12
2017-11-05T20:41:59.335Z,12
2017-11-05T20:42:24.359Z,12
2017-11-05T20:42:40.091Z,12
2017-11-05T20:42:56.569Z,12
2017-11-05T20:43:09.447Z,12
2017-11-05T20:43:28.304Z,12
2017-11-05T20:43:45.066Z,12
2017-11-05T20:44:02.007Z,12
2017-11-05T20:44:22.059Z,12
2017-11-05T20:44:39.471Z,12
2017-11-05T20:44:56.486Z,12
2017-11-05T20:45:15.785Z,12
